createdAt,value
2023-10-17T00:01:46.479Z,100956.09
2023-10-17T00:06:49.422Z,100926.69
2023-10-17T00:11:56.775Z,100938.69
2023-10-17T00:16:59.319Z,100979.41
2023-10-17T00:22:04.895Z,100943.56
2023-10-17T00:27:08.833Z,100948.50
2023-10-17T00:32:11.298Z,100934.44
2023-10-17T00:37:15.750Z,100975.03
2023-10-17T00:42:36.517Z,100909.22
2023-10-17T00:47:39.025Z,100961.41
2023-10-17T00:52:42.478Z,100917.81
2023-10-17T00:57:46.723Z,100918.53
2023-10-17T01:02:49.174Z,100901.47
2023-10-17T01:07:51.491Z,100966.13
2023-10-17T01:13:05.976Z,100928.69
2023-10-17T01:18:08.588Z,100879.78
2023-10-17T01:23:11.957Z,100977.63
2023-10-17T01:28:14.328Z,100970.03
2023-10-17T01:33:18.356Z,100890.41
2023-10-17T01:38:27.274Z,100952.94
2023-10-17T01:43:36.647Z,100913.88
2023-10-17T01:48:39.355Z,100972.41
2023-10-17T01:53:42.671Z,100980.38
2023-10-17T01:59:08.149Z,100948.38
2023-10-17T02:04:20.158Z,100983.94
2023-10-17T02:09:22.447Z,100930.63
2023-10-17T02:14:24.969Z,100928.97
2023-10-17T02:19:27.708Z,100932.94
2023-10-17T02:24:31.161Z,100944.91
2023-10-17T02:29:36.530Z,100915.94
2023-10-17T02:34:39.687Z,100936.44
2023-10-17T02:39:42.141Z,100949.44
2023-10-17T02:44:45.539Z,100929.88
2023-10-17T02:49:48.471Z,100956.66
2023-10-17T02:54:58.279Z,100906.16
2023-10-17T03:00:20.820Z,100940.84
2023-10-17T03:05:24.580Z,100923.97
2023-10-17T03:10:39.029Z,100937.47
2023-10-17T03:15:47.815Z,100967.72
2023-10-17T03:20:53.897Z,100912.56
2023-10-17T03:26:02.728Z,100864.09
2023-10-17T03:31:12.600Z,100946.59
2023-10-17T03:36:33.670Z,100938.06
2023-10-17T03:41:38.732Z,100946.16
2023-10-17T03:46:41.130Z,100935.94
2023-10-17T03:51:48.341Z,100881.25
2023-10-17T03:56:57.805Z,100927.16
2023-10-17T04:01:59.941Z,100972.44
2023-10-17T04:07:05.063Z,100983.44
2023-10-17T04:12:09.828Z,100894.13
2023-10-17T04:17:15.994Z,100891.50
2023-10-17T04:22:22.512Z,100925.19
2023-10-17T04:27:32.683Z,100902.78
2023-10-17T04:32:40.091Z,100986.84
2023-10-17T04:37:46.582Z,100972.72
2023-10-17T04:42:54.803Z,100911.56
2023-10-17T04:48:13.827Z,100981.84
2023-10-17T04:53:28.183Z,100926.97
2023-10-17T04:58:41.413Z,100965.19
2023-10-17T05:03:52.668Z,100935.81
2023-10-17T05:09:13.612Z,100892.88
2023-10-17T05:14:47.941Z,100981.28
2023-10-17T05:20:08.828Z,100946.19
2023-10-17T05:25:29.575Z,100985.34
2023-10-17T05:30:50.793Z,101018.66
2023-10-17T05:36:11.874Z,101005.00
2023-10-17T05:41:38.814Z,101014.47
2023-10-17T05:46:59.352Z,100991.41
2023-10-17T05:52:20.077Z,101007.97
2023-10-17T05:57:41.067Z,101013.75
2023-10-17T06:03:02.000Z,101058.31
2023-10-17T06:08:23.208Z,101018.66
2023-10-17T06:13:44.168Z,101037.25
2023-10-17T06:18:51.246Z,101023.38
2023-10-17T06:24:19.941Z,101031.81
2023-10-17T06:29:23.047Z,101083.00
2023-10-17T06:34:26.263Z,101034.25
2023-10-17T06:39:38.424Z,101035.03
2023-10-17T06:44:53.424Z,101068.19
2023-10-17T06:50:05.725Z,101046.47
2023-10-17T06:55:09.676Z,101062.53
2023-10-17T07:00:25.302Z,101086.94
2023-10-17T07:05:28.310Z,101029.75
2023-10-17T07:10:40.309Z,101084.66
2023-10-17T07:15:43.569Z,101019.09
2023-10-17T07:21:04.252Z,101024.38
2023-10-17T07:26:11.544Z,101091.50
2023-10-17T07:31:17.620Z,101086.06
2023-10-17T07:36:20.428Z,101029.25
2023-10-17T07:41:38.172Z,101104.88
2023-10-17T07:46:47.791Z,101095.66
2023-10-17T07:51:53.674Z,101039.94
2023-10-17T07:57:00.403Z,100985.63
2023-10-17T08:02:24.732Z,100967.41
2023-10-17T08:07:27.182Z,101069.06
2023-10-17T08:12:31.237Z,101062.50
2023-10-17T08:17:36.546Z,101018.72
2023-10-17T08:23:13.204Z,101016.63
2023-10-17T08:28:33.271Z,101052.41
2023-10-17T08:33:38.866Z,101078.56
2023-10-17T08:38:46.048Z,101033.91
2023-10-17T08:43:48.647Z,100986.97
2023-10-17T08:48:58.853Z,101052.25
2023-10-17T08:54:01.338Z,100964.53
2023-10-17T08:59:45.076Z,101040.56
2023-10-17T09:04:47.561Z,100943.22
2023-10-17T09:09:57.187Z,100967.44
2023-10-17T09:15:03.761Z,100956.94
2023-10-17T09:20:34.859Z,100962.59
2023-10-17T09:32:53.806Z,101012.22
2023-10-17T10:15:53.340Z,100807.94
2023-10-17T10:27:51.118Z,100931.34
2023-10-17T10:32:57.330Z,100811.97
2023-10-17T10:39:13.693Z,100909.00
2023-10-17T10:50:57.346Z,100887.84
2023-10-17T10:56:43.297Z,100893.25
2023-10-17T12:06:12.792Z,100781.16
2023-10-17T12:17:10.417Z,100751.03
2023-10-17T12:22:12.790Z,100701.09
2023-10-17T12:27:15.496Z,100684.97
2023-10-17T12:32:22.480Z,100733.16
2023-10-17T12:37:24.919Z,100747.31
2023-10-17T12:42:27.302Z,100723.66
2023-10-17T12:47:30.893Z,100699.22
2023-10-17T12:52:33.277Z,100694.47
2023-10-17T12:57:37.895Z,100692.16
2023-10-17T13:02:41.555Z,100714.09
2023-10-17T13:07:44.096Z,100708.72
2023-10-17T13:12:48.244Z,100681.72
2023-10-17T13:17:56.976Z,100669.31
2023-10-17T13:23:04.921Z,100668.72
2023-10-17T13:28:08.769Z,100633.47
2023-10-17T13:33:11.178Z,100661.88
2023-10-17T13:38:13.578Z,100668.16
2023-10-17T13:43:15.895Z,100630.59
2023-10-17T13:48:18.305Z,100614.38
2023-10-17T13:53:20.572Z,100646.78
2023-10-17T13:58:22.764Z,100633.22
2023-10-17T14:03:25.351Z,100643.63
2023-10-17T14:08:28.268Z,100644.84
2023-10-17T14:13:30.508Z,100683.25
2023-10-17T14:18:42.195Z,100767.25
2023-10-17T14:23:59.339Z,100707.03
2023-10-17T14:29:05.094Z,100639.97
2023-10-17T14:34:11.097Z,100620.97
2023-10-17T14:39:13.400Z,100651.47
2023-10-17T14:44:16.845Z,100608.19
2023-10-17T14:49:19.371Z,100601.81
2023-10-17T14:54:23.312Z,100649.56
2023-10-17T14:59:25.657Z,100616.50
2023-10-17T15:04:28.069Z,100623.34
2023-10-17T15:09:30.640Z,100594.16
2023-10-17T15:14:35.773Z,100622.88
2023-10-17T15:19:38.755Z,100572.91
2023-10-17T15:24:41.053Z,100587.88
2023-10-17T15:29:43.285Z,100574.44
2023-10-17T15:34:47.729Z,100600.53
2023-10-17T15:39:50.438Z,100576.44
2023-10-17T15:44:53.686Z,100588.03
2023-10-17T15:49:55.970Z,100568.53
2023-10-17T15:54:58.473Z,100604.19
2023-10-17T16:00:00.926Z,100600.63
2023-10-17T16:05:05.736Z,100586.13
2023-10-17T16:10:10.338Z,100572.06
2023-10-17T16:15:13.312Z,100589.53
2023-10-17T16:20:16.253Z,100562.09
2023-10-17T16:25:20.124Z,100605.03
2023-10-17T16:30:22.566Z,100592.47
2023-10-17T16:35:26.254Z,100587.88
2023-10-17T16:40:28.579Z,100581.16
2023-10-17T16:45:31.915Z,100574.16
2023-10-17T16:50:34.738Z,100562.59
2023-10-17T16:55:39.427Z,100546.22
2023-10-17T17:00:43.477Z,100575.47
2023-10-17T17:05:45.906Z,100572.75
2023-10-17T17:10:48.205Z,100578.78
2023-10-17T17:15:50.812Z,100558.34
2023-10-17T17:20:54.556Z,100604.19
2023-10-17T17:25:57.868Z,100593.66
2023-10-17T17:31:00.579Z,100583.47
2023-10-17T17:36:04.308Z,100548.81
2023-10-17T17:41:07.092Z,100502.75
2023-10-17T17:46:10.397Z,100562.38
2023-10-17T17:51:16.087Z,100575.78
2023-10-17T17:56:19.084Z,100595.31
2023-10-17T18:01:22.857Z,100552.44
2023-10-17T18:06:25.370Z,100574.38
2023-10-17T18:11:28.159Z,100568.91
2023-10-17T18:16:35.192Z,100603.66
2023-10-17T18:21:37.902Z,100572.38
2023-10-17T18:26:42.441Z,100571.09
2023-10-17T18:31:45.029Z,100591.84
2023-10-17T18:36:47.347Z,100569.53
2023-10-17T18:41:51.324Z,100550.06
2023-10-17T18:46:54.837Z,100559.56
2023-10-17T18:51:59.515Z,100560.13
2023-10-17T18:57:01.861Z,100564.47
2023-10-17T19:02:04.302Z,100555.81
2023-10-17T19:07:07.671Z,100552.19
2023-10-17T19:12:09.983Z,100570.75
2023-10-17T19:17:13.599Z,100572.97
2023-10-17T19:22:15.927Z,100583.00
2023-10-17T19:27:18.330Z,100596.38
2023-10-17T19:32:20.581Z,100613.72
2023-10-17T19:37:22.980Z,100569.16
2023-10-17T19:42:25.433Z,100604.97
2023-10-17T19:47:29.289Z,100588.66
2023-10-17T19:52:32.276Z,100580.41
2023-10-17T19:57:34.801Z,100623.28
2023-10-17T20:02:37.549Z,100584.50
2023-10-17T20:07:40.641Z,100600.44
2023-10-17T20:12:43.274Z,100613.34
2023-10-17T20:17:46.309Z,100581.09
2023-10-17T20:22:48.616Z,100570.56
2023-10-17T20:27:50.952Z,100610.28
2023-10-17T20:32:53.922Z,100600.50
2023-10-17T20:37:56.190Z,100551.97
2023-10-17T20:42:59.061Z,100572.63
2023-10-17T20:48:02.762Z,100558.41
2023-10-17T20:53:06.168Z,100589.72
2023-10-17T20:58:10.975Z,100581.38
2023-10-17T21:03:14.375Z,100557.13
2023-10-17T21:08:17.247Z,100569.16
2023-10-17T21:13:19.618Z,100603.75
2023-10-17T21:18:21.857Z,100576.06
2023-10-17T21:23:24.054Z,100568.47
2023-10-17T21:28:26.353Z,100566.44
2023-10-17T21:33:31.264Z,100599.34
2023-10-17T21:38:33.557Z,100566.50
2023-10-17T21:43:35.907Z,100557.59
2023-10-17T21:48:46.175Z,100578.66
2023-10-17T21:53:50.202Z,100558.13
2023-10-17T21:58:52.683Z,100584.47
2023-10-17T22:03:55.015Z,100559.22
2023-10-17T22:09:01.033Z,100573.13
2023-10-17T22:14:03.529Z,100591.06
2023-10-17T22:19:06.008Z,100585.97
2023-10-17T22:24:08.811Z,100553.09
2023-10-17T22:29:11.946Z,100566.97
2023-10-17T22:34:14.647Z,100534.50
2023-10-17T22:39:16.947Z,100543.38
2023-10-17T22:44:19.381Z,100537.53
2023-10-17T22:49:21.878Z,100570.72
2023-10-17T22:54:24.226Z,100591.81
2023-10-17T22:59:26.693Z,100566.50
2023-10-17T23:04:29.714Z,100550.63
2023-10-17T23:09:31.967Z,100566.25
2023-10-17T23:14:34.319Z,100562.59
2023-10-17T23:19:42.770Z,100544.53
2023-10-17T23:24:45.151Z,100573.00
2023-10-17T23:29:48.572Z,100552.72
2023-10-17T23:34:50.803Z,100573.66
2023-10-17T23:39:53.228Z,100570.06
2023-10-17T23:44:55.557Z,100541.19
2023-10-17T23:49:57.946Z,100546.47
2023-10-17T23:55:00.208Z,100574.47
